Time;durP1;ratioP1;P1;durP2;ratioP2;P2;SDS_P1;SDS_P2;PMS_P1;PMS_P2;Temp;Humidity;BMP_temperature;BMP_pressure;BME280_temperature;BME280_humidity;BME280_pressure;Samples;Min_cycle;Max_cycle;Signal;HPM_P1;HPM_P2
2022/06/02 00:00:15;;;;;;;1.13;1.02;;;18.00;44.90;;;15.96;48.88;101210.66;12239897;19;20010;-80
2022/06/02 00:04:55;;;;;;;1.30;1.25;;;17.90;45.00;;;15.82;48.92;101217.72;12236272;19;20082;-80
2022/06/02 00:09:25;;;;;;;1.45;1.38;;;17.90;45.10;;;15.86;48.98;101232.38;12244783;19;20499;-80
2022/06/02 00:13:37;;;;;;;1.35;1.23;;;17.90;45.10;;;15.82;49.07;101241.41;12242188;19;20053;-80
2022/06/02 00:18:06;;;;;;;1.65;1.55;;;17.80;45.00;;;15.77;49.18;101253.22;12244416;19;20014;-79
2022/06/02 00:22:50;;;;;;;1.70;1.60;;;17.80;45.00;;;15.59;49.05;101236.88;12236607;19;20026;-79
2022/06/02 00:27:21;;;;;;;2.40;2.20;;;17.70;45.30;;;15.69;49.37;101246.72;12242784;19;20018;-79
2022/06/02 00:31:57;;;;;;;1.50;1.40;;;17.70;45.40;;;15.70;49.47;101258.06;12245593;19;20023;-79
2022/06/02 00:36:11;;;;;;;1.35;1.27;;;17.60;45.40;;;15.53;49.26;101243.41;12243312;19;20028;-79
2022/06/02 00:40:14;;;;;;;1.40;1.35;;;17.60;45.20;;;15.52;49.26;101246.97;12242829;19;20027;-79
2022/06/02 00:44:48;;;;;;;1.48;1.38;;;17.50;45.10;;;15.42;49.42;101236.22;12241634;19;20045;-79
2022/06/02 00:49:14;;;;;;;1.80;1.50;;;17.60;45.50;;;15.58;49.46;101265.00;12242183;19;20014;-80
2022/06/02 00:58:57;;;;;;;1.20;1.10;;;17.50;45.50;;;15.48;49.60;101259.50;12238747;19;20018;-79
2022/06/02 01:03:17;;;;;;;1.02;1.02;;;17.50;45.60;;;15.44;49.44;101246.63;12235151;19;20074;-79
2022/06/02 01:07:52;;;;;;;1.17;1.17;;;17.50;45.60;;;15.57;49.67;101255.41;12241698;19;20105;-80
2022/06/02 01:12:18;;;;;;;1.00;1.00;;;17.50;45.60;;;15.67;49.58;101284.59;12241142;19;20013;-79
2022/06/02 01:16:44;;;;;;;1.30;1.20;;;17.50;45.60;;;15.56;49.56;101260.78;12241546;19;20018;-79
2022/06/02 01:21:21;;;;;;;1.13;1.13;;;17.40;45.40;;;15.67;49.62;101284.59;12241437;19;20025;-79
2022/06/02 01:26:07;;;;;;;1.25;1.25;;;17.50;45.60;;;15.64;49.74;101283.00;12227951;19;20374;-79
2022/06/02 01:30:57;;;;;;;1.10;1.05;;;17.60;45.60;;;15.64;49.67;101292.69;12242262;19;20006;-79
2022/06/02 01:35:38;;;;;;;1.30;1.20;;;17.60;45.60;;;15.51;49.66;101283.94;12238673;19;20353;-79
2022/06/02 01:40:16;;;;;;;1.08;1.08;;;17.50;45.50;;;15.55;49.81;101293.31;12241110;19;20031;-79
2022/06/02 01:44:52;;;;;;;1.17;1.17;;;17.50;45.50;;;15.49;49.68;101286.66;12237941;19;20093;-79
2022/06/02 01:49:17;;;;;;;1.30;1.15;;;17.50;45.60;;;15.28;49.84;101262.59;12241172;19;20015;-79
2022/06/02 01:53:52;;;;;;;0.98;0.98;;;17.50;45.60;;;15.38;49.76;101305.78;12235496;19;20015;-80
2022/06/02 01:58:35;;;;;;;1.20;1.13;;;17.40;45.50;;;15.31;49.98;101304.53;12239533;19;20024;-78
2022/06/02 02:03:24;;;;;;;1.55;0.98;;;17.30;45.50;;;15.23;49.92;101312.94;12230538;19;20045;-80
2022/06/02 02:08:08;;;;;;;1.20;1.08;;;17.30;45.60;;;15.14;49.99;101305.59;12237831;19;20010;-79
2022/06/02 02:12:59;;;;;;;0.90;0.90;;;17.20;45.60;;;15.13;49.92;101318.88;12231737;19;20494;-80
2022/06/02 02:17:22;;;;;;;2.75;1.08;;;17.10;45.60;;;15.10;50.13;101329.59;12232927;19;20010;-80
2022/06/02 02:21:43;;;;;;;1.08;1.05;;;17.10;45.60;;;14.94;50.11;101308.72;12238487;19;20049;-79
2022/06/02 02:26:11;;;;;;;1.10;1.10;;;17.10;45.70;;;14.94;50.11;101322.69;12235346;19;20475;-80
2022/06/02 02:30:14;;;;;;;0.95;0.95;;;16.90;45.70;;;14.74;50.15;101302.06;12234575;19;20040;-80
2022/06/02 02:34:36;;;;;;;1.20;1.20;;;17.00;45.50;;;14.88;50.29;101338.88;12238251;19;20107;-80
2022/06/02 02:39:14;;;;;;;1.52;1.08;;;16.90;45.60;;;14.84;50.32;101342.63;12247138;19;20026;-80
2022/06/02 02:43:41;;;;;;;1.00;1.00;;;16.90;45.50;;;14.75;50.34;101327.44;12243494;19;20018;-80
2022/06/02 02:48:23;;;;;;;1.13;1.13;;;16.80;45.70;;;14.78;50.29;101343.84;12244170;19;20448;-80
2022/06/02 02:53:01;;;;;;;1.17;1.08;;;16.80;45.80;;;14.74;50.39;101346.75;12247992;19;20013;-80
2022/06/02 02:57:41;;;;;;;1.05;1.05;;;16.80;45.70;;;14.67;50.45;101348.09;12246677;19;20027;-80
2022/06/02 03:02:33;;;;;;;0.90;0.90;;;16.70;45.60;;;14.61;50.33;101346.72;12246971;19;20031;-80
2022/06/02 03:06:42;;;;;;;0.95;0.95;;;16.60;45.90;;;14.41;50.50;101331.28;12247196;19;20019;-79
2022/06/02 03:10:49;;;;;;;1.25;1.20;;;16.80;45.80;;;14.34;50.71;101334.28;12247650;19;20022;-80
2022/06/02 03:15:23;;;;;;;1.38;1.17;;;16.60;45.80;;;14.38;50.61;101358.59;12245459;19;20018;-80
2022/06/02 03:19:48;;;;;;;1.77;1.00;;;16.50;46.00;;;14.34;50.60;101359.72;12248942;19;20544;-80
2022/06/02 03:24:46;;;;;;;1.85;1.13;;;16.50;45.90;;;14.37;50.59;101388.44;12241688;19;20078;-80
2022/06/02 03:29:02;;;;;;;0.90;0.90;;;16.40;46.00;;;14.27;50.77;101395.19;12247741;19;20025;-80
2022/06/02 03:33:39;;;;;;;;;;;16.40;46.00;;;14.21;50.10;101392.94;12242621;19;20368;-80
2022/06/02 03:38:16;;;;;;;1.07;1.03;;;16.30;45.40;;;14.21;50.52;101408.69;12244400;19;19911;-80
2022/06/02 03:42:39;;;;;;;1.42;1.15;;;16.30;46.00;;;14.00;50.74;101381.91;12244495;19;20026;-79
2022/06/02 03:47:35;;;;;;;1.50;1.40;;;16.20;46.00;;;14.08;50.72;101401.53;12245674;19;20351;-79
2022/06/02 03:52:07;;;;;;;1.50;1.40;;;16.20;46.10;;;14.14;50.81;101429.22;12243677;19;20010;-79
2022/06/02 03:56:51;;;;;;;1.00;1.00;;;16.20;46.30;;;14.05;50.76;101421.88;12244039;19;20026;-80
2022/06/02 04:01:03;;;;;;;1.17;1.17;;;16.10;46.30;;;14.04;51.12;101418.41;12236983;19;20019;-79
2022/06/02 04:05:46;;;;;;;1.38;1.13;;;16.10;46.30;;;13.94;50.85;101404.13;12242616;19;20021;-79
2022/06/02 04:10:27;;;;;;;1.15;1.05;;;16.10;46.50;;;13.91;51.04;101404.31;12242969;19;20025;-79
2022/06/02 04:14:50;;;;;;;1.10;1.10;;;16.10;46.50;;;14.06;51.01;101444.56;12243493;19;20395;-79
2022/06/02 04:24:47;;;;;;;1.05;0.85;;;16.10;46.70;;;13.93;51.07;101433.94;12243567;19;20030;-79
2022/06/02 04:29:14;;;;;;;1.03;1.03;;;16.00;46.70;;;14.04;51.18;101446.44;12241462;19;20014;-79
2022/06/02 04:33:35;;;;;;;1.15;1.08;;;16.00;46.80;;;14.02;51.11;101443.91;12240922;19;20024;-80
2022/06/02 04:37:49;;;;;;;1.10;1.10;;;16.00;46.70;;;14.06;51.15;101450.66;12233771;19;20010;-79
2022/06/02 04:42:20;;;;;;;1.40;1.30;;;16.00;46.80;;;13.97;51.47;101440.72;12237944;19;20021;-80
2022/06/02 04:46:40;;;;;;;1.10;1.10;;;16.10;46.90;;;14.06;51.50;101461.16;12236589;19;20368;-79
2022/06/02 04:51:06;;;;;;;7.22;1.20;;;16.10;46.90;;;14.07;51.37;101468.13;12239778;19;20015;-79
2022/06/02 04:55:51;;;;;;;1.15;0.85;;;16.10;46.90;;;14.07;51.75;101470.75;12234588;19;20018;-80
2022/06/02 05:00:25;;;;;;;1.95;1.20;;;16.10;47.10;;;14.18;51.53;101475.38;12237147;19;20500;-80
2022/06/02 05:05:10;;;;;;;1.25;1.17;;;16.10;47.10;;;14.25;51.36;101481.97;12231980;19;20015;-80
2022/06/02 05:09:39;;;;;;;2.90;1.10;;;16.20;47.20;;;14.29;51.54;101488.75;12235936;19;20006;-80
2022/06/02 05:14:16;;;;;;;1.30;1.17;;;16.10;47.10;;;14.31;51.53;101489.50;12233553;19;20052;-80
2022/06/02 05:19:02;;;;;;;1.40;1.30;;;16.30;47.10;;;14.38;51.52;101493.44;12234351;19;20037;-79
2022/06/02 05:23:37;;;;;;;1.20;1.20;;;16.30;47.30;;;14.36;51.71;101489.22;12237456;19;20003;-80
2022/06/02 05:28:25;;;;;;;1.38;1.05;;;16.40;47.10;;;14.41;51.40;101495.03;12236307;19;20032;-79
2022/06/02 05:32:47;;;;;;;0.88;0.88;;;16.40;47.40;;;14.47;51.73;101502.56;12233021;19;20018;-82
2022/06/02 05:37:12;;;;;;;1.13;1.13;;;16.40;47.40;;;14.47;51.80;101506.97;12234289;19;20039;-80
2022/06/02 05:41:33;;;;;;;1.40;1.30;;;16.40;47.40;;;14.55;51.78;101507.41;12235507;19;20033;-81
2022/06/02 05:46:09;;;;;;;1.20;1.20;;;16.50;47.60;;;14.64;51.91;101513.91;12233210;19;20093;-82
2022/06/02 05:50:37;;;;;;;1.30;1.17;;;16.50;47.70;;;14.74;51.80;101531.69;12236705;19;20082;-81
2022/06/02 05:55:19;;;;;;;1.20;1.20;;;16.60;47.50;;;14.82;51.83;101528.56;12235267;19;20031;-80
2022/06/02 05:59:41;;;;;;;1.85;1.75;;;16.70;47.80;;;14.87;51.98;101523.88;12234135;19;20380;-79
2022/06/02 06:04:27;;;;;;;1.65;1.55;;;16.80;47.80;;;14.96;51.76;101531.22;12234907;19;20394;-84
2022/06/02 06:09:20;;;;;;;1.50;1.40;;;16.80;47.90;;;15.09;51.82;101520.78;12230449;19;20531;-80
2022/06/02 06:14:26;;;;;;;1.77;1.67;;;16.90;47.90;;;15.27;51.82;101526.69;12233424;19;20118;-78
2022/06/02 06:19:20;;;;;;;1.92;1.83;;;17.00;48.00;;;15.40;51.81;101535.53;12229113;19;20010;-81
2022/06/02 06:24:04;;;;;;;2.22;2.00;;;17.20;47.80;;;15.51;51.83;101544.53;12229887;19;20114;-80
2022/06/02 06:28:14;;;;;;;3.85;2.72;;;17.30;47.80;;;15.57;51.73;101531.81;12230454;19;20022;-80
2022/06/02 06:32:31;;;;;;;2.58;2.38;;;17.40;47.80;;;15.78;51.98;101545.44;12229502;19;20074;-80
2022/06/02 06:36:59;;;;;;;2.33;2.13;;;17.60;47.90;;;15.94;51.79;101550.59;12226594;19;20014;-80
2022/06/02 06:41:11;;;;;;;2.90;2.70;;;17.70;47.90;;;16.05;51.75;101553.38;12226203;19;20021;-81
2022/06/02 06:45:38;;;;;;;3.70;3.05;;;17.70;47.80;;;15.86;51.58;101522.09;12223766;19;20006;-80
2022/06/02 06:50:16;;;;;;;3.92;3.60;;;17.90;47.40;;;16.16;51.56;101571.09;12226741;19;20026;-82
2022/06/02 06:54:38;;;;;;;3.22;2.92;;;18.00;47.30;;;16.14;51.65;101565.09;12225321;19;20112;-81
2022/06/02 06:59:01;;;;;;;3.88;2.88;;;18.10;47.30;;;16.09;51.77;101556.63;12225192;19;20011;-78
2022/06/02 07:03:49;;;;;;;3.50;3.05;;;18.10;47.40;;;16.37;51.82;101569.69;12207608;19;20015;-79
2022/06/02 07:08:46;;;;;;;2.85;2.42;;;18.20;47.40;;;16.41;51.48;101562.44;12231873;19;20020;-78
2022/06/02 07:13:11;;;;;;;3.85;3.55;;;18.40;47.30;;;16.73;51.54;101589.28;12231052;19;20026;-78
2022/06/02 07:17:40;;;;;;;3.42;3.13;;;18.50;47.30;;;16.77;51.38;101567.06;12221288;19;20022;-83
2022/06/02 07:21:56;;;;;;;3.20;2.95;;;18.70;47.20;;;16.96;51.44;101571.09;12235704;19;20050;-79
2022/06/02 07:26:12;;;;;;;3.20;2.97;;;18.80;47.20;;;17.24;51.29;101594.63;12235081;19;20040;-80
2022/06/02 07:30:48;;;;;;;3.92;3.20;;;18.90;47.10;;;17.29;51.24;101596.09;12232885;19;20015;-79
2022/06/02 07:35:45;;;;;;;4.10;3.73;;;19.10;46.80;;;17.36;51.18;101595.59;12227615;19;20047;-79
2022/06/02 07:40:24;;;;;;;3.33;3.05;;;19.20;46.50;;;17.44;51.32;101608.22;12237226;19;20014;-79
2022/06/02 07:44:59;;;;;;;4.65;3.50;;;19.20;46.60;;;17.47;51.20;101603.59;12235368;19;20078;-79
2022/06/02 07:49:37;;;;;;;3.58;3.28;;;19.30;46.30;;;17.34;51.00;101586.06;12243950;19;20041;-80
2022/06/02 07:54:07;;;;;;;4.05;2.67;;;19.30;46.10;;;17.41;51.08;101595.22;12238442;19;20030;-79
2022/06/02 07:58:20;;;;;;;3.70;3.05;;;19.40;46.20;;;17.47;50.97;101616.78;12235594;19;20019;-79
2022/06/02 08:02:44;;;;;;;3.35;3.05;;;19.40;45.80;;;17.57;50.98;101616.13;12240705;19;20543;-79
2022/06/02 08:07:04;;;;;;;3.53;2.92;;;19.20;45.80;;;17.74;50.73;101615.81;12241694;19;20044;-80
2022/06/02 08:11:36;;;;;;;3.25;2.95;;;19.50;46.00;;;17.97;50.59;101635.31;12240544;19;20029;-81
2022/06/02 08:16:12;;;;;;;2.88;2.67;;;19.70;45.80;;;18.03;50.64;101636.66;12219618;19;20258;-81
2022/06/02 08:20:43;;;;;;;;;;;19.80;45.60;;;18.05;50.45;101616.25;12241171;19;20061;-80
2022/06/02 08:25:23;;;;;;;2.22;2.10;;;19.90;45.70;;;18.37;50.41;101636.88;12232950;19;19981;-82
2022/06/02 08:29:55;;;;;;;2.55;2.10;;;20.00;45.70;;;18.57;50.25;101644.16;12236241;19;20018;-80
2022/06/02 08:34:18;;;;;;;2.40;2.17;;;20.20;45.30;;;18.48;50.08;101621.88;12235915;19;20011;-80
2022/06/02 08:38:55;;;;;;;2.30;2.10;;;20.40;45.00;;;18.44;49.96;101627.50;12235993;19;20015;-81
2022/06/02 08:43:26;;;;;;;2.40;2.20;;;20.40;44.40;;;18.61;49.96;101642.16;12236692;19;20519;-81
2022/06/02 08:48:10;;;;;;;3.20;1.83;;;20.50;44.60;;;18.76;49.82;101652.44;12238540;19;20025;-82
2022/06/02 08:52:51;;;;;;;1.92;1.73;;;20.60;44.40;;;18.92;49.46;101643.34;12239820;19;20047;-82
2022/06/02 08:57:27;;;;;;;2.58;1.75;;;20.70;44.30;;;18.92;49.29;101644.19;12234863;19;20018;-80
2022/06/02 09:01:48;;;;;;;1.70;1.60;;;20.80;44.00;;;18.99;49.21;101663.13;12238488;19;20011;-80
2022/06/02 09:06:30;;;;;;;1.35;1.20;;;20.90;43.70;;;18.82;49.12;101642.34;12235166;19;20026;-81
2022/06/02 09:10:34;;;;;;;1.90;1.75;;;20.90;43.60;;;19.01;49.04;101669.97;12238922;19;20026;-81
2022/06/02 09:15:23;;;;;;;1.23;1.20;;;20.90;43.70;;;19.16;49.11;101661.81;12233538;19;20479;-80
2022/06/02 09:20:33;;;;;;;1.70;1.30;;;20.90;43.60;;;19.18;48.52;101667.84;12239892;19;20137;-80
2022/06/02 09:24:56;;;;;;;2.13;1.15;;;21.00;42.80;;;19.18;48.33;101660.75;12227780;19;20030;-81
2022/06/02 09:29:37;;;;;;;2.03;1.27;;;21.00;42.70;;;19.37;48.52;101661.97;12232964;19;20029;-81
2022/06/02 09:34:23;;;;;;;1.30;1.20;;;21.10;42.70;;;19.35;48.36;101651.47;12232937;19;20352;-80
2022/06/02 09:38:43;;;;;;;0.88;0.88;;;21.20;42.50;;;19.40;47.97;101667.03;12231406;19;20022;-81
2022/06/02 09:43:20;;;;;;;1.52;0.85;;;21.20;42.20;;;19.37;48.19;101673.41;12233129;19;20018;-82
2022/06/02 09:47:37;;;;;;;0.75;0.75;;;21.30;42.40;;;19.45;48.24;101678.97;12229432;19;20081;-81
2022/06/02 09:52:03;;;;;;;0.75;0.75;;;21.30;42.50;;;19.59;48.09;101682.34;12219275;19;20603;-81
2022/06/02 09:56:41;;;;;;;0.88;0.88;;;21.40;42.50;;;19.57;47.98;101678.97;12225044;19;20091;-81
2022/06/02 10:01:18;;;;;;;1.33;1.13;;;21.40;42.00;;;19.69;47.56;101672.75;12222526;19;20115;-82
2022/06/02 10:06:03;;;;;;;2.53;0.82;;;21.50;41.90;;;19.87;47.02;101692.50;12221940;19;20022;-82
2022/06/02 10:10:39;;;;;;;0.63;0.63;;;21.60;41.20;;;19.87;47.00;101671.28;12221825;19;20037;-81
2022/06/02 10:15:26;;;;;;;1.40;0.88;;;21.70;41.10;;;19.98;47.00;101673.09;12230638;19;20018;-80
2022/06/02 10:20:21;;;;;;;1.00;0.88;;;21.80;40.80;;;20.16;47.10;101688.47;12233999;19;20047;-80
2022/06/02 10:25:07;;;;;;;0.93;0.70;;;21.80;41.30;;;20.26;46.65;101686.78;12228904;19;20045;-79
2022/06/02 10:29:59;;;;;;;1.13;0.73;;;22.00;41.20;;;20.27;46.69;101686.63;12231487;19;20286;-80
2022/06/02 10:34:47;;;;;;;0.80;0.80;;;22.00;40.40;;;20.11;46.38;101675.59;12230702;19;20082;-80
2022/06/02 10:39:20;;;;;;;0.85;0.60;;;22.10;40.20;;;20.15;45.82;101694.75;12226386;19;20019;-80
2022/06/02 10:43:53;;;;;;;0.68;0.60;;;22.10;40.20;;;20.20;46.00;101687.25;12230926;19;20018;-78
2022/06/02 10:48:44;;;;;;;1.77;0.70;;;22.00;40.10;;;20.33;46.14;101694.13;12229986;19;20488;-78
2022/06/02 10:53:40;;;;;;;0.80;0.80;;;22.10;40.20;;;20.57;45.64;101695.75;12232073;19;20014;-78
2022/06/02 10:58:22;;;;;;;0.63;0.63;;;22.20;40.00;;;20.61;45.69;101691.06;12239679;19;20014;-78
2022/06/02 11:03:20;;;;;;;0.90;0.90;;;22.30;39.50;;;20.62;45.78;101690.06;12245070;19;20017;-78
2022/06/02 11:08:20;;;;;;;1.77;0.68;;;22.40;39.80;;;20.65;45.59;101690.66;12244225;19;20010;-78
2022/06/02 11:13:19;;;;;;;0.93;0.77;;;22.40;39.50;;;20.75;45.40;101672.16;12242526;19;20015;-78
2022/06/02 11:18:13;;;;;;;0.50;0.50;;;22.50;39.10;;;20.98;45.05;101695.00;12240312;19;20014;-78
2022/06/02 11:22:35;;;;;;;0.88;0.60;;;22.60;39.30;;;21.12;44.37;101703.63;12246569;19;20045;-78
2022/06/02 11:27:14;;;;;;;0.60;0.57;;;22.80;38.90;;;21.25;44.56;101696.25;12240523;19;20017;-78
2022/06/02 11:32:06;;;;;;;2.25;0.70;;;22.80;39.00;;;21.28;44.21;101676.56;12246851;19;20472;-78
2022/06/02 11:36:51;;;;;;;0.50;0.50;;;23.00;38.60;;;21.41;44.10;101696.69;12240694;19;20101;-78
2022/06/02 11:41:22;;;;;;;0.57;0.57;;;23.10;38.90;;;21.53;44.31;101680.66;12243102;19;20010;-78
2022/06/02 11:46:25;;;;;;;2.38;1.00;;;23.20;38.60;;;21.68;44.09;101684.63;12236231;19;20046;-79
2022/06/02 11:50:57;;;;;;;0.68;0.60;;;23.30;38.10;;;21.77;43.35;101690.97;12236703;19;20014;-78
2022/06/02 11:55:20;;;;;;;0.50;0.50;;;23.40;38.00;;;21.95;43.30;101694.66;12235223;19;20025;-78
2022/06/02 12:00:09;;;;;;;0.85;0.63;;;23.90;37.90;;;22.05;43.50;101687.56;12239399;19;20627;-79
2022/06/02 12:04:59;;;;;;;1.10;0.68;;;23.60;37.50;;;21.95;43.20;101693.81;12239324;19;20045;-79
2022/06/02 12:09:55;;;;;;;0.55;0.52;;;23.70;37.60;;;21.94;43.07;101692.16;12235873;19;20034;-78
2022/06/02 12:14:42;;;;;;;0.53;0.53;;;23.70;37.60;;;21.85;42.98;101677.84;12236106;19;20014;-80
2022/06/02 12:19:04;;;;;;;0.70;0.70;;;23.70;37.30;;;21.99;42.97;101698.75;12217217;19;20006;-78
2022/06/02 12:23:50;;;;;;;0.88;0.60;;;23.70;37.50;;;22.02;43.01;101698.47;12221868;19;20082;-79
2022/06/02 12:28:31;;;;;;;0.50;0.50;;;23.80;37.30;;;21.98;42.22;101704.19;12224395;19;20054;-79
2022/06/02 12:33:06;;;;;;;0.68;0.50;;;23.80;36.90;;;21.87;42.51;101699.81;12222178;19;20037;-79
2022/06/02 12:37:58;;;;;;;0.65;0.50;;;23.70;36.70;;;21.74;42.50;101667.28;12222705;19;20011;-79
2022/06/02 12:42:50;;;;;;;1.33;0.60;;;23.70;36.70;;;21.94;42.11;101703.63;12222077;19;20643;-78
2022/06/02 12:47:32;;;;;;;0.60;0.43;;;23.70;36.80;;;21.95;42.23;101684.03;12225817;19;20791;-79
2022/06/02 12:52:13;;;;;;;0.55;0.55;;;23.70;36.70;;;22.05;41.95;101700.03;12223138;19;20014;-78
2022/06/02 12:57:34;;;;;;;1.30;0.63;;;23.80;36.40;;;22.12;42.27;101701.19;12223455;19;20024;-79
2022/06/02 13:02:02;;;;;;;1.15;1.05;;;23.80;36.50;;;22.16;41.39;101691.09;12225945;19;20034;-79
2022/06/02 13:06:50;;;;;;;0.40;0.40;;;23.90;36.20;;;22.09;41.17;101694.31;12221045;19;20030;-77
2022/06/02 13:11:26;;;;;;;0.70;0.70;;;23.90;36.10;;;22.07;41.09;101698.91;12223904;19;20022;-78
2022/06/02 13:16:32;;;;;;;0.60;0.60;;;24.20;36.20;;;22.10;41.64;101703.97;12218219;19;20011;-78
2022/06/02 13:21:50;;;;;;;0.52;0.52;;;23.90;36.10;;;22.06;41.33;101710.53;12218907;19;20011;-79
2022/06/02 13:26:30;;;;;;;0.50;0.50;;;23.80;36.00;;;21.97;41.50;101695.38;12220618;19;20018;-78
2022/06/02 13:31:21;;;;;;;0.40;0.40;;;23.80;35.80;;;22.08;41.13;101689.09;12222511;19;20066;-79
2022/06/02 13:35:49;;;;;;;0.50;0.40;;;23.80;35.60;;;21.94;40.76;101671.72;12217154;19;20019;-78
2022/06/02 13:40:05;;;;;;;0.35;0.35;;;23.90;35.80;;;22.22;40.40;101699.38;12220875;19;20014;-78
2022/06/02 13:44:45;;;;;;;2.10;0.50;;;23.90;35.70;;;22.12;40.13;101682.56;12220247;19;20024;-80
2022/06/02 13:49:09;;;;;;;0.55;0.55;;;23.90;35.50;;;22.35;40.38;101703.63;12215746;19;20018;-78
2022/06/02 13:57:30;;;;;;;0.70;0.55;;;24.00;35.50;;;22.49;40.52;101700.56;12218382;19;20028;-78
2022/06/02 13:58:37;;;;;;;0.60;0.60;;;24.10;36.20;;;22.57;40.40;101683.88;12214507;19;20031;-79
2022/06/02 14:03:27;;;;;;;0.60;0.60;;;24.20;35.40;;;22.80;40.08;101700.44;12211466;19;20252;-77
2022/06/02 14:07:56;;;;;;;1.38;0.57;;;24.30;35.50;;;22.72;39.84;101682.50;12217962;19;20014;-78
2022/06/02 14:12:38;;;;;;;0.80;0.80;;;24.50;35.40;;;22.88;40.04;101704.06;12214113;19;20038;-79
2022/06/02 14:17:02;;;;;;;0.50;0.50;;;24.50;35.30;;;22.96;39.33;101714.91;12205915;19;20034;-78
2022/06/02 14:21:26;;;;;;;0.73;0.60;;;24.60;35.00;;;22.61;39.38;101650.69;12217300;19;20513;-78
2022/06/02 14:26:10;;;;;;;2.20;0.88;;;24.60;34.70;;;22.90;38.93;101687.94;12191143;19;20023;-79
2022/06/02 14:30:32;;;;;;;1.30;0.75;;;24.60;34.60;;;22.96;39.12;101695.41;12214235;19;20043;-78
2022/06/02 14:35:19;;;;;;;1.05;0.80;;;24.70;34.60;;;22.85;38.80;101685.72;12219056;19;20756;-80
2022/06/02 14:39:27;;;;;;;0.77;0.65;;;24.70;34.40;;;23.02;38.87;101700.16;12227802;19;20026;-78
2022/06/02 14:43:53;;;;;;;0.75;0.70;;;24.80;34.20;;;23.01;38.41;101714.50;12223240;19;20014;-77
2022/06/02 14:48:18;;;;;;;1.85;0.60;;;24.80;34.20;;;22.99;38.63;101711.13;12228384;19;20025;-77
2022/06/02 14:52:42;;;;;;;1.23;0.60;;;24.80;34.20;;;22.86;38.47;101702.53;12227541;19;20022;-77
2022/06/02 14:56:56;;;;;;;0.65;0.63;;;24.70;34.20;;;22.89;38.48;101727.06;12224277;19;20328;-77
2022/06/02 15:01:43;;;;;;;0.52;0.52;;;24.70;33.90;;;22.81;38.57;101729.59;12228472;19;20055;-77
2022/06/02 15:05:55;;;;;;;0.90;0.60;;;24.60;34.00;;;22.77;38.78;101714.88;12226523;19;20432;-77
2022/06/02 15:10:22;;;;;;;0.57;0.57;;;24.60;34.40;;;22.79;38.24;101726.25;12226891;19;20021;-77
2022/06/02 15:15:11;;;;;;;0.80;0.60;;;24.60;34.30;;;22.68;38.37;101724.56;12225119;19;20018;-78
2022/06/02 15:19:53;;;;;;;1.95;0.70;;;24.50;34.20;;;22.62;38.43;101734.91;12221670;19;20018;-77
2022/06/02 15:24:35;;;;;;;0.60;0.60;;;24.40;34.20;;;22.50;38.51;101732.38;12227785;19;20078;-79
2022/06/02 15:29:13;;;;;;;0.60;0.60;;;24.40;34.30;;;22.36;38.59;101722.13;12237825;19;20034;-78
2022/06/02 15:33:55;;;;;;;1.42;0.60;;;24.20;34.30;;;22.36;38.79;101738.09;12237632;19;20014;-77
2022/06/02 15:38:04;;;;;;;1.85;0.63;;;24.20;34.40;;;22.32;38.56;101728.69;12235365;19;20018;-78
2022/06/02 15:42:44;;;;;;;0.55;0.55;;;24.10;34.50;;;22.30;38.31;101725.31;12236446;19;20467;-79
2022/06/02 15:47:20;;;;;;;1.38;0.80;;;24.10;34.50;;;22.21;38.26;101726.97;12236909;19;20018;-78
2022/06/02 15:52:11;;;;;;;0.70;0.70;;;24.00;34.80;;;22.07;38.42;101714.88;12237721;19;20045;-82
2022/06/02 15:56:40;;;;;;;1.52;0.80;;;23.90;34.60;;;22.12;38.66;101722.47;12232864;19;20015;-79
2022/06/02 16:01:10;;;;;;;0.95;0.60;;;23.90;34.60;;;22.16;38.70;101726.50;12234507;19;20078;-78
2022/06/02 16:05:53;;;;;;;1.15;0.80;;;23.90;34.60;;;22.24;38.56;101718.72;12232871;19;20086;-79
2022/06/02 16:15:14;;;;;;;1.10;0.55;;;23.90;34.80;;;22.39;38.57;101718.34;12237132;19;20011;-79
2022/06/02 16:20:17;;;;;;;0.50;0.50;;;24.00;34.90;;;22.51;38.17;101723.41;12235494;19;20021;-79
2022/06/02 16:25:05;;;;;;;0.70;0.57;;;24.10;34.50;;;22.56;38.00;101716.81;12238339;19;20494;-79
2022/06/02 16:29:50;;;;;;;0.52;0.52;;;24.10;34.40;;;22.61;37.86;101725.25;12233923;19;20023;-78
2022/06/02 16:34:51;;;;;;;0.60;0.60;;;24.20;34.50;;;22.55;38.02;101721.31;12238647;19;20030;-78
2022/06/02 16:39:26;;;;;;;0.60;0.60;;;24.20;34.40;;;22.33;37.91;101702.91;12201705;19;20010;-78
2022/06/02 16:44:05;;;;;;;0.60;0.60;;;24.20;34.20;;;22.30;37.83;101723.53;12221990;19;20021;-78
2022/06/02 16:48:41;;;;;;;0.93;0.55;;;24.00;34.30;;;22.33;37.81;101730.38;12222414;19;20287;-79
2022/06/02 16:58:53;;;;;;;0.95;0.80;;;24.00;34.10;;;22.30;38.17;101720.88;12225251;19;20010;-79
2022/06/02 17:03:42;;;;;;;0.60;0.60;;;24.00;34.40;;;22.25;38.20;101715.09;12220882;19;20403;-78
2022/06/02 17:08:31;;;;;;;1.00;0.57;;;24.00;34.60;;;22.29;38.16;101726.31;12219803;19;20011;-78
2022/06/02 17:13:15;;;;;;;1.02;0.60;;;24.00;34.50;;;22.20;38.21;101720.00;12226184;19;20015;-78
2022/06/02 17:17:31;;;;;;;1.73;0.57;;;23.90;34.20;;;22.19;37.77;101730.75;12222636;19;20078;-78
2022/06/02 17:22:14;;;;;;;0.50;0.50;;;23.80;34.10;;;22.05;38.04;101706.19;12214580;19;20615;-78
2022/06/02 17:26:36;;;;;;;0.60;0.52;;;23.90;34.40;;;22.06;37.48;101736.28;12219715;19;20018;-78
2022/06/02 17:30:53;;;;;;;0.40;0.40;;;23.90;34.10;;;21.99;37.95;101735.16;12224472;19;20053;-78
2022/06/02 17:35:28;;;;;;;0.95;0.55;;;23.80;33.90;;;21.88;37.88;101736.94;12222740;19;20467;-78
2022/06/02 17:40:23;;;;;;;0.60;0.60;;;23.70;34.00;;;21.80;37.81;101735.91;12222094;19;20106;-78
2022/06/02 17:45:12;;;;;;;0.75;0.60;;;23.70;34.30;;;21.71;37.97;101726.06;12223317;19;20007;-79
2022/06/02 17:49:37;;;;;;;1.13;0.70;;;23.60;34.40;;;21.72;38.17;101741.06;12224136;19;20018;-78
2022/06/02 17:54:21;;;;;;;0.70;0.70;;;23.50;34.80;;;21.76;38.12;101745.13;12223137;19;20920;-79
2022/06/02 17:58:48;;;;;;;0.60;0.60;;;23.50;34.80;;;21.68;38.20;101734.31;12220965;19;20282;-79
2022/06/02 18:03:05;;;;;;;0.70;0.60;;;23.50;35.00;;;21.68;38.10;101742.28;12215840;19;20014;-78
2022/06/02 18:07:26;;;;;;;0.70;0.70;;;23.40;34.70;;;21.65;38.31;101741.56;12222939;19;20038;-78
2022/06/02 18:12:19;;;;;;;0.77;0.77;;;23.40;35.10;;;21.64;38.44;101737.22;12222715;19;20053;-78
2022/06/02 18:17:07;;;;;;;2.13;0.80;;;23.40;35.20;;;21.57;38.54;101735.22;12223496;19;20098;-78
2022/06/02 18:21:11;;;;;;;0.60;0.60;;;23.40;35.80;;;21.46;38.72;101732.66;12222304;19;20043;-78
2022/06/02 18:25:37;;;;;;;0.70;0.70;;;23.30;35.90;;;21.35;39.16;101738.84;12219195;19;20014;-79
2022/06/02 18:30:05;;;;;;;2.80;0.60;;;23.20;36.00;;;21.17;39.37;101726.16;12218823;19;20854;-78
2022/06/02 18:34:38;;;;;;;0.70;0.70;;;23.10;36.20;;;21.15;39.16;101738.72;12222694;19;20018;-78
2022/06/02 18:39:19;;;;;;;0.50;0.50;;;23.00;36.30;;;21.00;39.44;101734.69;12218334;19;20031;-78
2022/06/02 18:44:04;;;;;;;0.70;0.70;;;22.90;36.30;;;20.99;39.88;101747.13;12222437;19;20325;-78
2022/06/02 18:48:43;;;;;;;0.90;0.70;;;22.90;36.70;;;20.90;39.98;101753.22;12216779;19;20047;-78
2022/06/02 18:53:38;;;;;;;1.65;0.70;;;22.80;36.90;;;20.77;39.65;101758.69;12221024;19;20029;-77
2022/06/02 18:58:15;;;;;;;2.40;1.10;;;22.70;36.80;;;20.66;40.03;101760.53;12204693;19;20585;-80
2022/06/02 19:02:54;;;;;;;1.00;0.90;;;22.50;36.70;;;20.41;39.93;101753.66;12221477;19;20047;-80
2022/06/02 19:17:23;;;;;;;3.92;1.25;;;22.10;36.50;;;19.95;40.26;101773.22;12232331;19;20007;-79
2022/06/02 19:22:09;;;;;;;2.15;0.70;;;21.70;36.30;;;19.83;40.18;101786.47;12225961;19;20076;-78
2022/06/02 19:26:28;;;;;;;;;;;21.80;36.60;;;19.75;40.01;101798.63;12246148;19;20513;-79